Time;durP1;ratioP1;P1;durP2;ratioP2;P2;SDS_P1;SDS_P2;PMS_P1;PMS_P2;Temp;Humidity;BMP_temperature;BMP_pressure;BME280_temperature;BME280_humidity;BME280_pressure;Samples;Min_cycle;Max_cycle;Signal;HPM_P1;HPM_P2
2023/03/10 00:02:35;;;;;;;11.40;8.57;;;;;;;6.14;69.57;99392.28;6230838;28;20252;-71
2023/03/10 00:05:56;;;;;;;10.03;7.93;;;;;;;6.25;69.24;99378.75;6232312;28;20366;-70
2023/03/10 00:09:17;;;;;;;13.30;9.30;;;;;;;6.54;68.58;99375.94;6211651;28;20241;-69
2023/03/10 00:12:39;;;;;;;10.23;7.87;;;;;;;6.60;68.26;99377.19;6230927;28;20590;-70
2023/03/10 00:16:00;;;;;;;12.23;9.03;;;;;;;6.45;69.05;99363.44;6234323;28;20249;-70
2023/03/10 00:19:21;;;;;;;13.57;8.70;;;;;;;6.55;68.55;99350.84;6228707;28;20224;-70
2023/03/10 00:22:42;;;;;;;10.93;7.87;;;;;;;6.31;69.63;99354.06;6230447;28;20252;-70
2023/03/10 00:26:03;;;;;;;12.23;8.90;;;;;;;6.53;68.93;99341.31;6225609;28;20232;-69
2023/03/10 00:29:25;;;;;;;12.13;8.40;;;;;;;6.59;68.64;99336.22;6231699;28;20867;-70
2023/03/10 00:32:45;;;;;;;11.60;7.53;;;;;;;6.54;68.87;99335.81;6225298;28;20214;-70
2023/03/10 00:36:09;;;;;;;14.57;8.17;;;;;;;6.50;68.87;99328.22;6216275;28;20224;-70
2023/03/10 00:39:30;;;;;;;9.90;7.50;;;;;;;6.28;69.39;99311.53;6229997;28;20524;-71
2023/03/10 00:42:50;;;;;;;10.97;8.23;;;;;;;6.48;69.03;99312.31;6235041;28;20498;-70
2023/03/10 00:46:13;;;;;;;13.43;8.13;;;;;;;6.29;69.38;99307.03;6233652;28;20304;-70
2023/03/10 00:49:34;;;;;;;10.63;7.53;;;;;;;6.32;69.68;99301.41;6229655;28;20240;-70
2023/03/10 00:52:56;;;;;;;10.37;7.63;;;;;;;6.10;70.30;99299.09;6230708;28;20240;-71
2023/03/10 00:56:19;;;;;;;10.37;7.53;;;;;;;6.35;69.60;99296.59;6241398;28;20228;-71
2023/03/10 00:59:40;;;;;;;10.93;7.60;;;;;;;6.54;68.75;99292.13;6232301;28;20225;-70
2023/03/10 01:03:02;;;;;;;10.90;8.30;;;;;;;6.55;68.48;99278.56;6229902;28;20612;-71
2023/03/10 01:06:23;;;;;;;13.10;10.00;;;;;;;6.67;67.94;99268.50;6236379;28;20225;-70
2023/03/10 01:09:45;;;;;;;12.83;7.93;;;;;;;6.37;69.12;99253.63;6226880;28;20232;-71
2023/03/10 01:13:06;;;;;;;8.47;7.60;;;;;;;6.47;69.03;99249.03;6213810;28;20232;-69
2023/03/10 01:16:29;;;;;;;11.70;8.03;;;;;;;6.27;69.54;99245.66;6228684;28;20224;-70
2023/03/10 01:19:51;;;;;;;9.90;7.10;;;;;;;6.28;69.68;99225.91;6229314;28;20224;-70
2023/03/10 01:23:15;;;;;;;8.70;7.13;;;;;;;6.22;69.89;99226.53;6227888;28;20227;-70
2023/03/10 01:26:35;;;;;;;9.40;8.27;;;;;;;5.51;71.81;99222.72;6229031;28;20527;-71
2023/03/10 01:29:56;;;;;;;11.97;9.40;;;;;;;5.98;70.95;99223.56;6205198;28;20602;-71
2023/03/10 01:33:18;;;;;;;10.70;7.90;;;;;;;6.27;69.76;99218.06;6217596;28;20537;-69
2023/03/10 01:36:41;;;;;;;11.33;8.20;;;;;;;5.91;70.49;99214.44;6229838;28;20747;-69
2023/03/10 01:40:05;;;;;;;11.43;7.33;;;;;;;5.90;71.02;99199.41;6216682;28;20664;-70
2023/03/10 01:43:32;;;;;;;10.37;7.93;;;;;;;6.07;70.34;99195.09;6222479;28;20231;-70
2023/03/10 01:46:54;;;;;;;10.00;8.60;;;;;;;6.08;70.24;99196.75;6227842;28;20229;-70
2023/03/10 01:50:23;;;;;;;14.33;7.80;;;;;;;5.98;70.14;99193.28;6231755;28;20439;-70
2023/03/10 01:53:47;;;;;;;11.57;9.00;;;;;;;5.94;70.35;99184.72;6215025;28;20590;-70
2023/03/10 01:57:09;;;;;;;11.17;8.10;;;;;;;6.19;69.57;99194.72;6225693;28;20224;-70
2023/03/10 02:00:32;;;;;;;10.63;7.63;;;;;;;6.32;69.03;99179.13;6229242;28;20319;-69
2023/03/10 02:03:59;;;;;;;11.47;8.60;;;;;;;6.10;69.56;99173.38;6204536;28;20233;-70
2023/03/10 02:07:23;;;;;;;11.17;7.87;;;;;;;6.00;70.43;99162.75;6215285;28;20228;-72
2023/03/10 02:10:46;;;;;;;12.17;8.90;;;;;;;6.10;69.68;99150.16;6217489;28;20235;-70
2023/03/10 02:14:07;;;;;;;9.63;7.27;;;;;;;6.25;68.78;99134.41;6215296;28;20617;-70
2023/03/10 02:17:28;;;;;;;13.33;9.20;;;;;;;6.03;69.33;99127.66;6218868;28;20605;-70
2023/03/10 02:20:59;;;;;;;13.13;8.40;;;;;;;5.83;70.25;99123.41;6238377;28;20224;-72
2023/03/10 02:24:28;;;;;;;8.67;7.20;;;;;;;5.98;70.10;99100.53;6218859;28;20238;-70
2023/03/10 02:27:52;;;;;;;14.57;9.10;;;;;;;6.15;69.14;99101.56;6219609;28;20220;-70
2023/03/10 02:31:13;;;;;;;11.77;8.43;;;;;;;5.93;70.51;99096.63;6238767;28;20236;-69
2023/03/10 02:34:34;;;;;;;12.57;8.87;;;;;;;5.89;70.47;99089.88;6237813;28;20232;-70
2023/03/10 02:37:55;;;;;;;11.37;8.50;;;;;;;5.93;70.40;99086.78;6217986;28;20252;-70
2023/03/10 02:41:23;;;;;;;12.17;8.13;;;;;;;6.06;69.83;99086.41;6241185;28;20255;-69
2023/03/10 02:44:47;;;;;;;11.93;8.87;;;;;;;5.95;70.60;99070.56;6205559;28;20224;-70
2023/03/10 02:48:11;;;;;;;8.60;7.63;;;;;;;5.82;70.85;99060.19;6214099;28;20236;-70
2023/03/10 02:51:37;;;;;;;13.87;7.80;;;;;;;6.05;70.19;99050.78;6237885;28;20236;-70
2023/03/10 02:55:03;;;;;;;10.77;8.60;;;;;;;5.98;69.85;99054.22;6221470;28;20228;-71
2023/03/10 02:58:27;;;;;;;11.30;7.93;;;;;;;6.05;70.09;99037.41;6230005;28;20239;-70
2023/03/10 03:01:51;;;;;;;7.97;6.80;;;;;;;5.87;70.59;99047.25;6220109;28;20501;-70
2023/03/10 03:05:13;;;;;;;10.40;8.00;;;;;;;6.00;69.89;99039.72;6217379;28;20216;-70
2023/03/10 03:08:34;;;;;;;7.07;5.67;;;;;;;5.82;71.14;99040.66;6224725;28;20260;-70
2023/03/10 03:11:58;;;;;;;8.00;6.23;;;;;;;5.74;70.77;99040.59;6232509;28;20244;-70
2023/03/10 03:15:19;;;;;;;13.43;9.00;;;;;;;5.79;70.97;99031.13;6236226;28;20228;-70
2023/03/10 03:18:42;;;;;;;8.70;7.77;;;;;;;6.08;69.58;99033.59;6217687;28;20220;-70
2023/03/10 03:22:05;;;;;;;8.67;7.37;;;;;;;6.16;69.74;99023.81;6213511;28;20233;-69
2023/03/10 03:25:29;;;;;;;6.50;5.83;;;;;;;5.91;70.15;99026.41;6239021;28;20560;-71
2023/03/10 03:28:51;;;;;;;8.07;6.90;;;;;;;6.12;69.59;99018.91;6222139;28;20224;-70
2023/03/10 03:32:16;;;;;;;10.57;6.80;;;;;;;6.01;69.70;99014.66;6208270;28;20717;-70
2023/03/10 03:35:39;;;;;;;7.73;6.57;;;;;;;5.97;70.61;99007.06;6243751;28;20251;-70
2023/03/10 03:39:01;;;;;;;8.30;7.47;;;;;;;5.89;70.85;99010.53;6219642;28;20228;-70
2023/03/10 03:42:25;;;;;;;9.40;6.37;;;;;;;5.84;70.56;99009.31;6204607;28;20230;-70
2023/03/10 03:45:47;;;;;;;10.03;6.73;;;;;;;5.97;70.36;99004.41;6240266;28;20228;-70
2023/03/10 03:49:09;;;;;;;9.20;7.10;;;;;;;5.76;70.71;99006.53;6220350;28;20231;-71
2023/03/10 03:52:32;;;;;;;8.50;6.97;;;;;;;5.71;71.59;99003.47;6204516;28;20237;-69
2023/03/10 03:55:53;;;;;;;7.93;6.93;;;;;;;5.56;72.01;99005.81;6215619;28;20752;-69
2023/03/10 03:59:17;;;;;;;7.27;5.67;;;;;;;5.83;71.73;98989.72;6217623;28;20248;-70
2023/03/10 04:02:39;;;;;;;8.77;6.50;;;;;;;5.61;71.69;98998.19;6212892;28;20244;-70
2023/03/10 04:06:02;;;;;;;10.50;7.10;;;;;;;5.93;71.15;98992.31;6212360;28;20245;-71
2023/03/10 04:09:25;;;;;;;9.67;7.40;;;;;;;6.03;70.65;98982.41;6238574;28;20227;-70
2023/03/10 04:12:46;;;;;;;8.23;6.00;;;;;;;6.05;70.28;98986.59;6225398;28;20236;-70
2023/03/10 04:16:08;;;;;;;8.67;6.50;;;;;;;6.17;70.09;98988.06;6210904;28;20236;-70
2023/03/10 04:19:31;;;;;;;11.53;7.33;;;;;;;6.06;71.08;98980.25;6203043;28;20224;-70
2023/03/10 04:23:00;;;;;;;9.67;7.57;;;;;;;5.86;71.27;98984.06;6225165;28;20240;-70
2023/03/10 04:26:26;;;;;;;6.47;5.80;;;;;;;5.99;70.53;98970.31;6216110;28;20698;-70
2023/03/10 04:29:48;;;;;;;9.07;6.87;;;;;;;5.82;71.37;98973.84;6212305;28;20228;-70
2023/03/10 04:33:09;;;;;;;6.70;5.57;;;;;;;5.85;71.74;98979.75;6221273;28;20237;-70
2023/03/10 04:36:31;;;;;;;9.50;8.03;;;;;;;5.88;71.59;98974.09;6233896;28;20233;-70
2023/03/10 04:39:55;;;;;;;7.93;6.00;;;;;;;5.92;71.48;98967.44;6208168;28;20233;-70
2023/03/10 04:43:18;;;;;;;9.60;6.73;;;;;;;5.89;71.53;98962.41;6227193;28;20338;-70
2023/03/10 04:46:39;;;;;;;12.43;9.23;;;;;;;5.94;71.11;98965.47;6236204;28;20232;-70
2023/03/10 04:50:01;;;;;;;9.97;7.27;;;;;;;5.97;71.29;98954.44;6207210;28;20248;-69
2023/03/10 04:53:22;;;;;;;10.23;7.43;;;;;;;6.08;70.91;98958.72;6207010;28;20248;-70
2023/03/10 04:56:44;;;;;;;9.10;7.47;;;;;;;5.90;71.24;98955.22;6209938;28;20236;-69
2023/03/10 05:00:11;;;;;;;8.53;6.93;;;;;;;6.04;71.04;98952.84;6222390;28;20235;-70
2023/03/10 05:03:32;;;;;;;12.23;7.43;;;;;;;5.87;71.49;98942.16;6231015;28;20231;-70
2023/03/10 05:06:53;;;;;;;9.10;7.07;;;;;;;5.82;71.81;98944.44;6228875;28;20229;-70
2023/03/10 05:10:21;;;;;;;9.03;7.30;;;;;;;5.90;70.90;98933.84;6215155;28;20228;-70
2023/03/10 05:13:42;;;;;;;11.80;8.30;;;;;;;5.97;70.70;98930.38;6216677;28;20232;-71
2023/03/10 05:17:05;;;;;;;12.90;8.60;;;;;;;5.96;70.86;98928.72;6227933;28;20544;-70
2023/03/10 05:20:26;;;;;;;12.30;9.03;;;;;;;5.74;71.61;98928.31;6242775;28;20589;-70
2023/03/10 05:23:48;;;;;;;8.57;7.10;;;;;;;5.84;70.99;98921.09;6230944;28;20220;-70
2023/03/10 05:27:10;;;;;;;9.80;7.40;;;;;;;5.64;71.81;98923.03;6205814;28;20536;-70
2023/03/10 05:30:33;;;;;;;8.67;7.67;;;;;;;5.74;71.69;98925.66;6230905;28;20236;-71
2023/03/10 05:33:55;;;;;;;9.60;7.93;;;;;;;5.46;72.44;98930.22;6228406;28;20233;-70
2023/03/10 05:37:17;;;;;;;7.97;6.57;;;;;;;5.49;72.54;98924.56;6207555;28;20227;-71
2023/03/10 05:40:40;;;;;;;11.20;7.13;;;;;;;5.10;73.63;98907.97;6214977;28;20605;-69
2023/03/10 05:44:01;;;;;;;8.47;7.10;;;;;;;5.29;73.58;98912.34;6234399;28;20314;-70
2023/03/10 05:47:22;;;;;;;10.23;9.07;;;;;;;5.33;72.92;98917.22;6220016;28;20560;-71
2023/03/10 05:50:44;;;;;;;10.93;7.57;;;;;;;5.46;72.27;98915.03;6217534;28;20229;-71
2023/03/10 05:54:05;;;;;;;8.10;7.17;;;;;;;5.57;72.55;98920.13;6223456;28;20232;-70
2023/03/10 05:57:27;;;;;;;8.50;7.00;;;;;;;5.63;71.90;98916.03;6219692;28;20233;-70
2023/03/10 06:00:48;;;;;;;8.00;6.83;;;;;;;5.51;72.25;98917.22;6222366;28;20308;-72
2023/03/10 06:04:09;;;;;;;13.87;8.17;;;;;;;5.52;72.00;98916.25;6228177;28;20394;-70
2023/03/10 06:07:31;;;;;;;8.27;6.30;;;;;;;5.70;71.70;98922.41;6217447;28;20228;-70
2023/03/10 06:10:52;;;;;;;10.70;8.43;;;;;;;5.68;71.51;98924.41;6220137;28;21726;-70
2023/03/10 06:14:13;;;;;;;13.10;7.77;;;;;;;5.69;71.46;98926.09;6223255;28;20350;-70
2023/03/10 06:17:34;;;;;;;9.67;7.13;;;;;;;5.51;71.94;98933.25;6215161;28;20629;-70
2023/03/10 06:20:55;;;;;;;7.67;6.30;;;;;;;5.52;72.17;98940.28;6235987;28;20704;-70
2023/03/10 06:24:17;;;;;;;9.33;8.37;;;;;;;5.63;71.89;98938.22;6210139;28;20240;-70
2023/03/10 06:27:39;;;;;;;10.27;6.60;;;;;;;5.57;71.87;98938.00;6224766;28;20283;-70
2023/03/10 06:31:02;;;;;;;10.13;7.70;;;;;;;5.77;71.21;98933.34;6230081;28;20223;-69
2023/03/10 06:34:22;;;;;;;13.20;8.60;;;;;;;5.68;70.92;98940.44;6215184;28;20272;-70
2023/03/10 06:37:43;;;;;;;11.50;7.37;;;;;;;5.66;71.26;98943.28;6218748;28;20228;-70
2023/03/10 06:41:06;;;;;;;7.27;5.47;;;;;;;5.77;71.44;98947.56;6224672;28;20236;-69
2023/03/10 06:44:27;;;;;;;8.93;6.37;;;;;;;5.94;70.71;98952.09;6206599;28;20240;-69
2023/03/10 06:47:48;;;;;;;7.57;5.63;;;;;;;5.69;70.75;98959.00;6210288;28;21268;-69
2023/03/10 06:51:14;;;;;;;9.90;8.13;;;;;;;5.95;70.87;98953.75;6217288;28;20256;-68
2023/03/10 06:54:36;;;;;;;11.77;6.93;;;;;;;5.97;70.50;98956.25;6218623;28;20232;-69
2023/03/10 06:57:58;;;;;;;9.30;5.97;;;;;;;5.73;70.86;98956.88;6213153;28;20223;-70
2023/03/10 07:01:24;;;;;;;7.73;6.23;;;;;;;5.62;71.70;98949.94;6220630;28;20228;-70
2023/03/10 07:04:45;;;;;;;8.93;6.17;;;;;;;6.01;70.13;98958.47;6207078;28;20236;-70
2023/03/10 07:08:05;;;;;;;8.80;7.77;;;;;;;6.10;70.32;98962.91;6210218;28;20698;-68
2023/03/10 07:11:27;;;;;;;8.43;6.43;;;;;;;5.96;70.50;98971.50;6219519;28;20323;-70
2023/03/10 07:14:49;;;;;;;7.73;6.33;;;;;;;6.08;70.12;98969.41;6232299;28;21837;-68
2023/03/10 07:18:10;;;;;;;13.40;6.13;;;;;;;5.92;70.00;98977.28;6226362;28;20239;-69
2023/03/10 07:21:31;;;;;;;7.00;5.90;;;;;;;5.97;70.59;98974.97;6235779;28;20236;-70
2023/03/10 07:24:54;;;;;;;8.73;6.90;;;;;;;5.81;71.52;98982.84;6232114;28;20346;-70
2023/03/10 07:28:14;;;;;;;6.70;5.50;;;;;;;5.87;70.84;98976.91;6221367;28;20224;-69
2023/03/10 07:31:36;;;;;;;6.87;5.20;;;;;;;6.04;70.74;98989.44;6225098;28;20240;-70
2023/03/10 07:34:58;;;;;;;9.57;5.60;;;;;;;6.28;69.39;98984.25;6217478;28;20236;-71
2023/03/10 07:38:18;;;;;;;7.40;6.20;;;;;;;6.31;69.00;98983.97;6226610;28;20231;-70
2023/03/10 07:41:39;;;;;;;8.70;5.90;;;;;;;6.19;69.71;98986.06;6231938;28;20748;-68
2023/03/10 07:45:00;;;;;;;8.27;6.63;;;;;;;6.21;69.41;98989.44;6221488;28;20225;-70
2023/03/10 07:48:22;;;;;;;7.10;5.50;;;;;;;6.14;69.58;98999.06;6209045;28;20244;-68
2023/03/10 07:51:43;;;;;;;5.57;5.07;;;;;;;6.12;69.64;98998.38;6212944;28;20248;-68
2023/03/10 07:55:04;;;;;;;7.27;5.83;;;;;;;6.12;69.36;98994.84;6228043;28;20244;-71
2023/03/10 07:58:26;;;;;;;5.67;4.30;;;;;;;6.11;69.36;98994.00;6230237;28;20499;-68
2023/03/10 08:01:47;;;;;;;9.43;6.90;;;;;;;5.83;70.90;98999.56;6226428;28;20335;-69
2023/03/10 08:05:11;;;;;;;8.70;6.13;;;;;;;6.19;69.23;99007.47;6235426;28;20228;-68
2023/03/10 08:08:32;;;;;;;6.50;5.17;;;;;;;6.18;69.79;99005.78;6218881;28;20547;-70
2023/03/10 08:11:52;;;;;;;8.57;6.20;;;;;;;6.04;69.71;99013.50;6227740;28;20228;-70
2023/03/10 08:15:13;;;;;;;9.33;6.07;;;;;;;5.87;70.69;99020.53;6230757;28;20243;-70
2023/03/10 08:18:35;;;;;;;5.50;5.00;;;;;;;6.09;70.21;99022.72;6219193;28;20228;-70
2023/03/10 08:21:57;;;;;;;7.97;5.63;;;;;;;5.97;70.18;99025.78;6227420;28;20236;-69
2023/03/10 08:25:18;;;;;;;8.47;6.67;;;;;;;5.97;69.84;99023.97;6232077;28;20521;-69
2023/03/10 08:28:40;;;;;;;7.77;5.93;;;;;;;6.18;69.63;99029.00;6232557;28;20232;-70
2023/03/10 08:32:01;;;;;;;7.60;5.53;;;;;;;6.39;69.12;99034.88;6234224;28;20304;-70
2023/03/10 08:35:21;;;;;;;7.17;4.93;;;;;;;6.40;68.39;99029.34;6228172;28;20237;-69
2023/03/10 08:38:44;;;;;;;9.77;5.70;;;;;;;6.55;68.57;99037.66;6220644;28;20244;-69
2023/03/10 08:42:05;;;;;;;7.97;6.40;;;;;;;6.32;68.52;99040.00;6227467;28;20452;-70
2023/03/10 08:45:26;;;;;;;6.77;5.87;;;;;;;6.35;68.43;99050.41;6224794;28;20249;-69
2023/03/10 08:48:48;;;;;;;7.33;6.37;;;;;;;6.41;68.69;99049.78;6221744;28;20526;-69
2023/03/10 08:52:09;;;;;;;7.53;5.53;;;;;;;6.61;67.68;99058.47;6217812;28;20232;-70
2023/03/10 08:55:31;;;;;;;6.10;5.47;;;;;;;6.47;67.85;99046.47;6214626;28;20240;-71
2023/03/10 08:58:57;;;;;;;8.97;5.93;;;;;;;6.31;68.71;99059.75;6218191;28;20693;-69
2023/03/10 09:02:20;;;;;;;8.93;5.43;;;;;;;6.63;67.75;99066.34;6219414;28;20268;-71
2023/03/10 09:05:41;;;;;;;8.60;6.37;;;;;;;6.78;66.80;99056.75;6221057;28;20320;-70
2023/03/10 09:09:02;;;;;;;8.23;5.83;;;;;;;7.02;66.88;99054.22;6216005;28;20244;-71
2023/03/10 09:12:25;;;;;;;15.40;11.93;;;;;;;7.03;66.79;99058.59;6218298;28;20334;-69
2023/03/10 09:15:45;;;;;;;13.10;8.57;;;;;;;6.53;67.60;99061.06;6239632;28;20232;-70
2023/03/10 09:19:07;;;;;;;8.30;6.47;;;;;;;6.65;66.96;99065.22;6217924;28;20232;-72
2023/03/10 09:22:28;;;;;;;8.93;6.30;;;;;;;6.55;67.72;99060.94;6218771;28;20233;-72
2023/03/10 09:25:49;;;;;;;9.87;6.57;;;;;;;6.58;67.67;99058.78;6218583;28;20561;-74
2023/03/10 09:29:11;;;;;;;6.57;5.50;;;;;;;6.30;68.14;99054.53;6202029;28;20224;-73
2023/03/10 09:32:32;;;;;;;8.83;6.43;;;;;;;6.04;69.28;99054.47;6219478;28;21694;-72
2023/03/10 09:35:56;;;;;;;7.67;6.97;;;;;;;5.84;69.53;99058.25;6235389;28;20236;-74
2023/03/10 09:39:17;;;;;;;9.13;6.03;;;;;;;6.10;68.78;99059.19;6212326;28;20228;-72
2023/03/10 09:42:40;;;;;;;12.30;7.07;;;;;;;6.11;69.09;99057.38;6225137;28;20244;-69
2023/03/10 09:46:14;;;;;;;9.07;8.17;;;;;;;6.10;69.23;99061.03;6205319;28;20237;-69
2023/03/10 09:49:38;;;;;;;9.60;7.40;;;;;;;5.87;69.67;99059.78;6219322;28;20262;-71
2023/03/10 09:53:07;;;;;;;9.73;8.40;;;;;;;6.12;70.39;99051.00;6208141;28;20232;-73
2023/03/10 09:56:32;;;;;;;6.57;5.87;;;;;;;6.53;68.51;99057.56;6232889;28;20228;-70
2023/03/10 09:59:57;;;;;;;8.87;5.73;;;;;;;6.45;68.11;99058.34;6218542;28;20221;-71
2023/03/10 10:03:22;;;;;;;10.10;7.67;;;;;;;6.23;68.56;99051.66;6210376;28;20326;-71
2023/03/10 10:06:45;;;;;;;8.70;6.63;;;;;;;6.36;67.97;99052.06;6224005;28;20228;-70
2023/03/10 10:10:14;;;;;;;11.97;7.17;;;;;;;6.04;69.08;99057.13;6208648;28;20239;-69
2023/03/10 10:13:35;;;;;;;9.63;7.50;;;;;;;5.90;69.94;99051.47;6220175;28;20235;-69
2023/03/10 10:17:02;;;;;;;14.57;10.17;;;;;;;6.18;69.41;99050.41;6217342;28;20258;-69
2023/03/10 10:20:28;;;;;;;9.20;7.53;;;;;;;6.13;69.74;99042.84;6209274;28;20235;-70
2023/03/10 10:23:51;;;;;;;11.17;7.50;;;;;;;5.83;70.79;99061.06;6218167;28;20228;-70
2023/03/10 10:27:16;;;;;;;10.77;6.70;;;;;;;6.23;69.56;99067.69;6214509;28;20267;-74
2023/03/10 10:30:39;;;;;;;11.63;7.97;;;;;;;6.34;69.01;99072.78;6231820;28;20248;-71
2023/03/10 10:34:02;;;;;;;11.73;7.27;;;;;;;6.44;68.96;99084.28;6239185;28;20236;-72
2023/03/10 10:37:29;;;;;;;11.53;7.53;;;;;;;6.68;68.29;99094.31;6225321;28;20236;-70
2023/03/10 10:40:52;;;;;;;10.73;7.43;;;;;;;6.62;68.22;99104.81;6240040;28;20547;-69
2023/03/10 10:44:16;;;;;;;13.17;8.30;;;;;;;6.73;67.57;99096.53;6216025;28;20813;-69
2023/03/10 10:47:48;;;;;;;13.63;9.20;;;;;;;7.07;67.03;99092.94;6219730;28;20216;-68
2023/03/10 10:51:20;;;;;;;12.83;7.80;;;;;;;6.65;67.86;99094.66;6243633;28;20317;-69
2023/03/10 10:54:42;;;;;;;11.07;8.10;;;;;;;6.57;68.53;99099.91;6237331;28;20251;-71
2023/03/10 10:58:05;;;;;;;14.17;10.53;;;;;;;6.94;67.34;99102.41;6225729;28;20579;-70
2023/03/10 11:01:26;;;;;;;19.43;11.03;;;;;;;6.72;67.92;99103.72;6230190;28;20217;-71
2023/03/10 11:04:47;;;;;;;16.87;10.77;;;;;;;6.82;67.08;99109.81;6234507;28;20228;-71
2023/03/10 11:08:17;;;;;;;16.37;10.60;;;;;;;6.97;66.67;99100.22;6217934;28;20233;-70
2023/03/10 11:11:47;;;;;;;12.20;9.00;;;;;;;6.98;66.71;99098.41;6224956;28;20224;-70
2023/03/10 11:15:19;;;;;;;13.40;8.40;;;;;;;6.91;67.17;99092.81;6233239;28;20232;-69
2023/03/10 11:18:45;;;;;;;15.57;10.87;;;;;;;6.94;67.00;99089.00;6231454;28;20572;-70
2023/03/10 11:22:17;;;;;;;12.33;9.77;;;;;;;6.94;66.86;99084.50;6218129;28;20240;-69
2023/03/10 11:25:42;;;;;;;13.43;8.63;;;;;;;6.95;67.29;99079.94;6239813;28;20315;-71
2023/03/10 11:29:16;;;;;;;13.77;8.87;;;;;;;7.03;67.14;99082.72;6208389;28;20237;-73
2023/03/10 11:32:48;;;;;;;12.70;8.77;;;;;;;6.99;66.61;99084.00;6219937;28;20231;-70
2023/03/10 11:36:21;;;;;;;10.93;8.10;;;;;;;6.81;67.70;99084.06;6227270;28;20570;-72
2023/03/10 11:39:52;;;;;;;10.53;8.27;;;;;;;6.73;68.09;99077.81;6237974;28;20247;-71
2023/03/10 11:43:22;;;;;;;13.37;8.57;;;;;;;6.95;67.25;99074.59;6218967;28;20438;-70
2023/03/10 11:46:54;;;;;;;14.30;10.60;;;;;;;6.74;68.02;99074.97;6230075;28;20288;-70
2023/03/10 11:50:23;;;;;;;12.43;9.20;;;;;;;6.73;68.33;99067.09;6238582;28;20227;-69
2023/03/10 11:53:49;;;;;;;12.93;9.83;;;;;;;6.59;69.02;99073.88;6230900;28;20232;-68
2023/03/10 11:57:15;;;;;;;14.57;9.20;;;;;;;6.55;69.26;99055.59;6221059;28;20229;-69
2023/03/10 12:00:39;;;;;;;11.63;8.50;;;;;;;6.63;69.25;99051.13;6241183;28;20470;-70
2023/03/10 12:04:12;;;;;;;10.37;8.70;;;;;;;6.70;69.17;99060.19;6224383;28;20229;-69
2023/03/10 12:07:37;;;;;;;11.23;7.73;;;;;;;6.76;69.15;99078.31;6223111;28;20257;-69
2023/03/10 12:11:01;;;;;;;11.67;8.53;;;;;;;6.93;68.10;99093.50;6226591;28;20233;-69
2023/03/10 12:14:23;;;;;;;12.70;8.53;;;;;;;7.14;67.33;99090.47;6228141;28;20236;-69
2023/03/10 12:17:44;;;;;;;10.33;8.30;;;;;;;6.99;68.04;99081.31;6216191;28;20259;-70
2023/03/10 12:21:22;;;;;;;14.07;8.00;;;;;;;7.84;66.19;99076.69;6235357;28;20220;-69
2023/03/10 12:24:44;;;;;;;9.90;7.47;;;;;;;7.54;66.82;99069.22;6233915;28;20602;-71
2023/03/10 12:28:23;;;;;;;9.87;7.70;;;;;;;7.25;67.39;99068.75;6216254;28;20228;-69
2023/03/10 12:31:46;;;;;;;11.37;8.37;;;;;;;7.06;68.71;99068.97;6214743;28;20513;-69
2023/03/10 12:35:46;;;;;;;11.53;7.83;;;;;;;6.91;68.85;99084.78;6216776;28;20311;-69
2023/03/10 12:39:36;;;;;;;9.00;7.40;;;;;;;7.23;67.78;99073.44;6122976;28;20225;-69
2023/03/10 12:42:57;;;;;;;13.37;8.03;;;;;;;7.34;67.04;99075.00;6220519;28;20216;-69
2023/03/10 12:46:22;;;;;;;11.73;8.17;;;;;;;6.84;68.48;99064.97;6229627;28;20245;-69
2023/03/10 12:49:50;;;;;;;10.90;8.37;;;;;;;6.88;69.24;99069.06;6242748;28;21041;-70
2023/03/10 12:53:28;;;;;;;10.27;7.23;;;;;;;7.14;67.90;99066.34;6223954;28;20228;-70
2023/03/10 12:57:01;;;;;;;11.37;7.93;;;;;;;7.55;66.26;99062.84;6240858;28;20225;-70
2023/03/10 13:00:31;;;;;;;8.97;8.07;;;;;;;7.26;67.63;99065.91;6218679;28;20228;-69
2023/03/10 13:03:53;;;;;;;9.53;7.03;;;;;;;7.22;67.62;99059.19;6214670;28;20236;-70
2023/03/10 13:07:16;;;;;;;9.53;6.90;;;;;;;7.33;67.53;99057.22;6220986;28;20229;-69
2023/03/10 13:10:38;;;;;;;10.17;7.03;;;;;;;7.10;68.16;99055.13;6232494;28;20228;-70
2023/03/10 13:14:04;;;;;;;8.87;6.67;;;;;;;7.19;67.70;99058.69;6235245;28;20601;-70
2023/03/10 13:17:28;;;;;;;11.47;8.20;;;;;;;7.35;67.87;99063.28;6192478;28;20257;-70
2023/03/10 13:20:50;;;;;;;9.23;7.10;;;;;;;7.17;68.08;99050.81;6233773;28;20217;-70
2023/03/10 13:24:28;;;;;;;7.57;5.97;;;;;;;7.27;67.97;99048.00;6210733;28;20225;-69
2023/03/10 13:27:51;;;;;;;9.17;8.20;;;;;;;7.09;68.49;99057.97;6219131;28;20239;-70
2023/03/10 13:31:20;;;;;;;8.30;5.67;;;;;;;7.04;68.69;99063.78;6229625;28;20217;-68
2023/03/10 13:34:40;;;;;;;9.97;6.87;;;;;;;7.23;68.83;99065.41;6222352;28;20231;-68
2023/03/10 13:38:08;;;;;;;10.80;7.93;;;;;;;7.62;66.39;99065.72;6214110;28;20236;-70
2023/03/10 13:41:32;;;;;;;10.23;6.90;;;;;;;7.60;67.38;99065.06;6231715;28;20228;-69
2023/03/10 13:44:54;;;;;;;10.57;7.80;;;;;;;7.63;67.11;99054.88;6233518;28;20236;-69
2023/03/10 13:48:16;;;;;;;11.20;6.30;;;;;;;7.06;68.45;99052.91;6226759;28;20227;-68
2023/03/10 13:51:38;;;;;;;7.03;6.33;;;;;;;7.08;68.74;99053.59;6210296;28;20571;-68
2023/03/10 13:55:11;;;;;;;6.80;6.10;;;;;;;7.20;68.34;99052.31;6227208;28;20614;-69
2023/03/10 13:58:32;;;;;;;10.17;6.07;;;;;;;7.23;68.77;99042.13;6232034;28;20786;-69
2023/03/10 14:01:56;;;;;;;10.30;7.93;;;;;;;7.49;67.77;99034.00;6225115;28;20271;-69
2023/03/10 14:05:39;;;;;;;9.03;7.57;;;;;;;7.30;67.82;99038.81;6226443;28;20236;-69
2023/03/10 14:09:12;;;;;;;7.87;6.10;;;;;;;7.60;66.96;99049.81;6225523;28;20228;-69
2023/03/10 14:12:38;;;;;;;9.27;6.83;;;;;;;7.47;67.91;99041.38;6225600;28;20859;-69
2023/03/10 14:15:59;;;;;;;7.40;5.37;;;;;;;7.12;68.60;99041.56;6231888;28;20244;-69
2023/03/10 14:19:45;;;;;;;8.93;7.40;;;;;;;7.22;75.41;99047.63;6213322;28;20228;-72
2023/03/10 14:23:35;;;;;;;9.63;8.47;;;;;;;7.49;70.57;99049.28;6226040;28;20223;-69
2023/03/10 14:26:59;;;;;;;10.23;6.77;;;;;;;7.47;71.78;99044.06;6219155;28;20236;-70
2023/03/10 14:30:24;;;;;;;8.23;5.70;;;;;;;7.26;69.94;99054.34;6221198;28;20278;-69
2023/03/10 14:33:45;;;;;;;8.53;6.33;;;;;;;7.10;69.73;99059.63;6224525;28;20241;-70
2023/03/10 14:37:06;;;;;;;6.47;5.67;;;;;;;6.92;70.47;99056.19;6216130;28;20783;-70
2023/03/10 14:40:28;;;;;;;10.57;6.93;;;;;;;6.72;70.70;99068.91;6235265;28;20264;-70
2023/03/10 14:43:49;;;;;;;6.67;5.50;;;;;;;6.66;70.61;99079.41;6225236;28;20290;-69
2023/03/10 14:47:10;;;;;;;7.40;6.60;;;;;;;6.68;70.63;99085.44;6224407;28;20263;-71
2023/03/10 14:50:31;;;;;;;7.13;5.87;;;;;;;6.64;70.11;99068.88;6248233;28;20228;-71
2023/03/10 14:53:52;;;;;;;7.07;6.37;;;;;;;6.39;71.63;99062.47;6232429;28;20232;-69
2023/03/10 14:57:19;;;;;;;9.53;7.20;;;;;;;6.53;71.14;99068.28;6211033;28;20232;-71
2023/03/10 15:00:40;;;;;;;8.80;7.63;;;;;;;6.43;71.17;99069.19;6245778;28;21285;-69
2023/03/10 15:04:01;;;;;;;8.30;6.03;;;;;;;6.75;70.10;99067.78;6244021;28;20219;-71
2023/03/10 15:07:21;;;;;;;9.20;7.17;;;;;;;6.84;69.85;99053.47;6224494;28;20260;-70
2023/03/10 15:10:46;;;;;;;8.67;6.20;;;;;;;6.48;71.22;99047.34;6234584;28;20320;-70
2023/03/10 15:14:13;;;;;;;6.60;5.97;;;;;;;6.49;70.66;99045.50;6221618;28;20229;-69
2023/03/10 15:17:34;;;;;;;8.27;7.40;;;;;;;6.34;71.33;99047.88;6226713;28;20256;-70
2023/03/10 15:20:57;;;;;;;8.67;5.30;;;;;;;6.17;71.98;99049.59;6222910;28;20799;-70
2023/03/10 15:24:19;;;;;;;7.30;6.40;;;;;;;6.36;71.56;99044.03;6235974;28;20243;-69
2023/03/10 15:27:39;;;;;;;6.00;5.50;;;;;;;7.56;80.26;99050.28;6222805;28;20236;-72
2023/03/10 15:31:02;;;;;;;7.37;6.67;;;;;;;8.09;71.49;99058.84;6225235;28;20236;-72
2023/03/10 15:34:23;;;;;;;10.30;6.47;;;;;;;7.39;69.67;99056.59;6219373;28;20228;-70
2023/03/10 15:37:44;;;;;;;6.80;6.10;;;;;;;6.86;70.91;99065.66;6214032;28;20323;-70
2023/03/10 15:41:05;;;;;;;8.53;6.77;;;;;;;6.27;72.07;99070.91;6217547;28;20232;-71
2023/03/10 15:44:26;;;;;;;8.30;6.37;;;;;;;6.67;71.29;99057.84;6214028;28;20232;-71
2023/03/10 15:47:48;;;;;;;9.63;6.67;;;;;;;6.88;71.00;99050.31;6219143;28;20228;-71
2023/03/10 15:51:11;;;;;;;12.07;7.03;;;;;;;6.58;71.63;99052.59;6225411;28;20262;-70
2023/03/10 15:54:33;;;;;;;8.00;6.87;;;;;;;6.46;71.84;99043.97;6218389;28;20236;-71
2023/03/10 15:57:54;;;;;;;7.00;5.20;;;;;;;6.47;71.73;99046.47;6206696;28;20225;-71
2023/03/10 16:01:19;;;;;;;7.50;5.83;;;;;;;6.45;71.80;99053.84;6225048;28;20335;-71
2023/03/10 16:04:42;;;;;;;10.13;5.90;;;;;;;6.36;71.88;99048.56;6230893;28;20937;-71